Hinckley, Illinois
Current Conditions -  °F | °C
As of 8:52 PM on Friday 24 Oct 2014 (Local Time) from KARR Reporting Station
Overcast Overcast  
Wind Chill: 59°   Ceiling: 4100
Heat Index: 59°   Visibility: 9mi
Dew Point: 47°   Wind: 6mph
Humidity: 64%   Direction: 210°SSW
Pressure: 29.95"   Gusts: NA
Location:  41.77°N, 88.64°W
Report Text: KARR 250152Z 21005KT 9SM OVC041 15/08 A2995 RMK AO2 SLP141 T01500083
Loading
Personal Weather Stations






























Interactive Weather Map
Tropical Storm Tracking
New forecast layout! Learn more

10-Day Weather Forecast

Advertisements
Track Severe Weather on mobile